sensor_id;sensor_type;location;lat;lon;timestamp;temperature;humidity
17170;DHT22;8700;48.222;16.342;2023-10-09T00:02:46;14.20;99.90
17170;DHT22;8700;48.222;16.342;2023-10-09T00:06:10;14.10;99.90
17170;DHT22;8700;48.222;16.342;2023-10-09T00:09:34;14.00;99.90
17170;DHT22;8700;48.222;16.342;2023-10-09T00:13:06;13.90;99.90
17170;DHT22;8700;48.222;16.342;2023-10-09T00:16:30;13.80;99.90
17170;DHT22;8700;48.222;16.342;2023-10-09T00:19:57;13.70;99.90
17170;DHT22;8700;48.222;16.342;2023-10-09T00:23:31;13.80;99.90
17170;DHT22;8700;48.222;16.342;2023-10-09T00:26:55;13.70;99.90
17170;DHT22;8700;48.222;16.342;2023-10-09T00:30:32;13.80;99.90
17170;DHT22;8700;48.222;16.342;2023-10-09T00:33:57;14.00;99.90
17170;DHT22;8700;48.222;16.342;2023-10-09T00:37:30;14.00;99.90
17170;DHT22;8700;48.222;16.342;2023-10-09T00:40:54;13.80;99.90
17170;DHT22;8700;48.222;16.342;2023-10-09T00:44:25;13.80;99.90
17170;DHT22;8700;48.222;16.342;2023-10-09T00:47:58;13.80;99.90
17170;DHT22;8700;48.222;16.342;2023-10-09T00:51:24;14.00;99.90
17170;DHT22;8700;48.222;16.342;2023-10-09T00:54:49;14.00;99.90
17170;DHT22;8700;48.222;16.342;2023-10-09T00:58:13;14.10;99.90
17170;DHT22;8700;48.222;16.342;2023-10-09T01:01:44;14.10;99.90
17170;DHT22;8700;48.222;16.342;2023-10-09T01:05:17;14.20;99.90
17170;DHT22;8700;48.222;16.342;2023-10-09T01:08:41;14.30;99.90
17170;DHT22;8700;48.222;16.342;2023-10-09T01:12:17;14.20;99.90
17170;DHT22;8700;48.222;16.342;2023-10-09T01:15:41;14.00;99.90
17170;DHT22;8700;48.222;16.342;2023-10-09T01:19:05;13.90;99.90
17170;DHT22;8700;48.222;16.342;2023-10-09T01:22:34;13.90;99.90
17170;DHT22;8700;48.222;16.342;2023-10-09T01:26:00;13.70;99.90
17170;DHT22;8700;48.222;16.342;2023-10-09T01:29:23;13.70;99.90
17170;DHT22;8700;48.222;16.342;2023-10-09T01:32:48;13.80;99.90
17170;DHT22;8700;48.222;16.342;2023-10-09T01:36:12;13.80;99.90
17170;DHT22;8700;48.222;16.342;2023-10-09T01:39:40;13.70;99.90
17170;DHT22;8700;48.222;16.342;2023-10-09T01:43:06;13.70;99.90
17170;DHT22;8700;48.222;16.342;2023-10-09T01:46:33;13.80;99.90
17170;DHT22;8700;48.222;16.342;2023-10-09T01:49:56;13.80;99.90
17170;DHT22;8700;48.222;16.342;2023-10-09T01:53:26;13.80;99.90
17170;DHT22;8700;48.222;16.342;2023-10-09T01:56:52;13.80;99.90
17170;DHT22;8700;48.222;16.342;2023-10-09T02:00:19;13.90;99.90
17170;DHT22;8700;48.222;16.342;2023-10-09T02:03:46;13.80;99.90
17170;DHT22;8700;48.222;16.342;2023-10-09T02:07:13;13.80;99.90
17170;DHT22;8700;48.222;16.342;2023-10-09T02:10:40;13.70;99.90
17170;DHT22;8700;48.222;16.342;2023-10-09T02:14:10;13.70;99.90
17170;DHT22;8700;48.222;16.342;2023-10-09T02:17:44;13.60;99.90
17170;DHT22;8700;48.222;16.342;2023-10-09T02:21:13;13.60;99.90
17170;DHT22;8700;48.222;16.342;2023-10-09T02:24:36;13.70;99.90
17170;DHT22;8700;48.222;16.342;2023-10-09T02:28:10;13.60;99.90
17170;DHT22;8700;48.222;16.342;2023-10-09T02:31:38;13.60;99.90
17170;DHT22;8700;48.222;16.342;2023-10-09T02:35:03;13.80;99.90
17170;DHT22;8700;48.222;16.342;2023-10-09T02:38:41;13.60;99.90
17170;DHT22;8700;48.222;16.342;2023-10-09T02:42:05;13.80;99.90
17170;DHT22;8700;48.222;16.342;2023-10-09T02:45:40;13.80;99.90
17170;DHT22;8700;48.222;16.342;2023-10-09T02:49:13;13.60;99.90
17170;DHT22;8700;48.222;16.342;2023-10-09T02:52:38;13.60;99.90
17170;DHT22;8700;48.222;16.342;2023-10-09T02:56:03;13.50;99.90
17170;DHT22;8700;48.222;16.342;2023-10-09T02:59:33;13.40;99.90
17170;DHT22;8700;48.222;16.342;2023-10-09T03:02:58;13.30;99.90
17170;DHT22;8700;48.222;16.342;2023-10-09T03:06:25;13.20;99.90
17170;DHT22;8700;48.222;16.342;2023-10-09T03:09:53;13.30;99.90
17170;DHT22;8700;48.222;16.342;2023-10-09T03:13:16;13.40;99.90
17170;DHT22;8700;48.222;16.342;2023-10-09T03:16:41;13.50;99.90
17170;DHT22;8700;48.222;16.342;2023-10-09T03:20:06;13.30;99.90
17170;DHT22;8700;48.222;16.342;2023-10-09T03:23:34;13.10;99.90
17170;DHT22;8700;48.222;16.342;2023-10-09T03:26:58;13.30;99.90
17170;DHT22;8700;48.222;16.342;2023-10-09T03:30:22;13.30;99.90
17170;DHT22;8700;48.222;16.342;2023-10-09T03:33:46;13.00;99.90
17170;DHT22;8700;48.222;16.342;2023-10-09T03:37:10;13.00;99.90
17170;DHT22;8700;48.222;16.342;2023-10-09T03:40:42;12.90;99.90
17170;DHT22;8700;48.222;16.342;2023-10-09T03:44:07;13.00;99.90
17170;DHT22;8700;48.222;16.342;2023-10-09T03:47:34;13.20;99.90
17170;DHT22;8700;48.222;16.342;2023-10-09T03:50:57;13.30;99.90
17170;DHT22;8700;48.222;16.342;2023-10-09T03:54:29;13.00;99.90
17170;DHT22;8700;48.222;16.342;2023-10-09T03:57:54;13.00;99.90
17170;DHT22;8700;48.222;16.342;2023-10-09T04:01:21;13.20;99.90
17170;DHT22;8700;48.222;16.342;2023-10-09T04:04:48;12.80;99.90
17170;DHT22;8700;48.222;16.342;2023-10-09T04:08:12;12.90;99.90
17170;DHT22;8700;48.222;16.342;2023-10-09T04:11:40;12.80;99.90
17170;DHT22;8700;48.222;16.342;2023-10-09T04:15:04;13.10;99.90
17170;DHT22;8700;48.222;16.342;2023-10-09T04:18:29;13.20;99.90
17170;DHT22;8700;48.222;16.342;2023-10-09T04:21:53;13.20;99.90
17170;DHT22;8700;48.222;16.342;2023-10-09T04:25:19;13.10;99.90
17170;DHT22;8700;48.222;16.342;2023-10-09T04:28:47;12.90;99.90
17170;DHT22;8700;48.222;16.342;2023-10-09T04:32:14;12.80;99.90
17170;DHT22;8700;48.222;16.342;2023-10-09T04:35:39;12.80;99.90
17170;DHT22;8700;48.222;16.342;2023-10-09T04:39:06;12.80;99.90
17170;DHT22;8700;48.222;16.342;2023-10-09T04:42:56;12.70;99.90
17170;DHT22;8700;48.222;16.342;2023-10-09T04:46:21;12.60;99.90
17170;DHT22;8700;48.222;16.342;2023-10-09T04:49:44;12.60;99.90
17170;DHT22;8700;48.222;16.342;2023-10-09T04:53:24;12.60;99.90
17170;DHT22;8700;48.222;16.342;2023-10-09T04:56:49;12.60;99.90
17170;DHT22;8700;48.222;16.342;2023-10-09T05:00:16;12.70;99.90
17170;DHT22;8700;48.222;16.342;2023-10-09T05:04:05;12.70;99.90
17170;DHT22;8700;48.222;16.342;2023-10-09T05:07:36;12.80;99.90
17170;DHT22;8700;48.222;16.342;2023-10-09T05:11:17;13.00;99.90
17170;DHT22;8700;48.222;16.342;2023-10-09T05:14:54;12.90;99.90
17170;DHT22;8700;48.222;16.342;2023-10-09T05:18:29;12.80;99.90
17170;DHT22;8700;48.222;16.342;2023-10-09T05:21:56;12.60;99.90
17170;DHT22;8700;48.222;16.342;2023-10-09T05:25:19;12.60;99.90
17170;DHT22;8700;48.222;16.342;2023-10-09T05:29:03;12.50;99.90
17170;DHT22;8700;48.222;16.342;2023-10-09T05:32:40;12.60;99.90
17170;DHT22;8700;48.222;16.342;2023-10-09T05:40:35;12.80;99.90
17170;DHT22;8700;48.222;16.342;2023-10-09T05:43:57;12.80;99.90
17170;DHT22;8700;48.222;16.342;2023-10-09T05:47:39;12.80;99.90
17170;DHT22;8700;48.222;16.342;2023-10-09T05:51:13;12.80;99.90
17170;DHT22;8700;48.222;16.342;2023-10-09T05:54:55;12.90;99.90
17170;DHT22;8700;48.222;16.342;2023-10-09T05:58:47;13.00;99.90
17170;DHT22;8700;48.222;16.342;2023-10-09T06:02:30;13.20;99.90
17170;DHT22;8700;48.222;16.342;2023-10-09T06:06:10;13.30;99.90
17170;DHT22;8700;48.222;16.342;2023-10-09T06:09:39;13.30;99.90
17170;DHT22;8700;48.222;16.342;2023-10-09T06:13:16;13.20;99.90
17170;DHT22;8700;48.222;16.342;2023-10-09T06:17:00;13.20;99.90
17170;DHT22;8700;48.222;16.342;2023-10-09T06:20:38;13.40;99.90
17170;DHT22;8700;48.222;16.342;2023-10-09T06:29:04;13.60;99.90
17170;DHT22;8700;48.222;16.342;2023-10-09T06:37:25;13.50;99.90
17170;DHT22;8700;48.222;16.342;2023-10-09T06:41:04;13.60;99.90
17170;DHT22;8700;48.222;16.342;2023-10-09T06:44:45;13.80;99.90
17170;DHT22;8700;48.222;16.342;2023-10-09T06:48:17;13.90;99.90
17170;DHT22;8700;48.222;16.342;2023-10-09T06:51:57;13.80;99.90
17170;DHT22;8700;48.222;16.342;2023-10-09T06:55:38;13.80;99.90
17170;DHT22;8700;48.222;16.342;2023-10-09T06:59:10;14.00;99.90
17170;DHT22;8700;48.222;16.342;2023-10-09T07:02:37;14.30;99.90
17170;DHT22;8700;48.222;16.342;2023-10-09T07:06:08;14.30;99.90
17170;DHT22;8700;48.222;16.342;2023-10-09T07:09:44;14.30;99.90
17170;DHT22;8700;48.222;16.342;2023-10-09T07:13:32;14.10;99.90
17170;DHT22;8700;48.222;16.342;2023-10-09T07:16:57;14.20;99.90
17170;DHT22;8700;48.222;16.342;2023-10-09T07:20:20;14.80;99.90
17170;DHT22;8700;48.222;16.342;2023-10-09T07:24:06;14.60;99.90
17170;DHT22;8700;48.222;16.342;2023-10-09T07:27:38;14.70;99.90
17170;DHT22;8700;48.222;16.342;2023-10-09T07:31:07;14.60;99.90
17170;DHT22;8700;48.222;16.342;2023-10-09T07:34:44;14.70;99.90
17170;DHT22;8700;48.222;16.342;2023-10-09T07:38:18;14.60;99.90
17170;DHT22;8700;48.222;16.342;2023-10-09T07:41:44;14.80;99.90
17170;DHT22;8700;48.222;16.342;2023-10-09T07:49:46;14.60;99.90
17170;DHT22;8700;48.222;16.342;2023-10-09T07:53:14;14.80;99.90
17170;DHT22;8700;48.222;16.342;2023-10-09T07:56:40;14.80;99.90
17170;DHT22;8700;48.222;16.342;2023-10-09T08:00:03;14.60;99.90
17170;DHT22;8700;48.222;16.342;2023-10-09T08:03:33;15.00;99.90
17170;DHT22;8700;48.222;16.342;2023-10-09T08:06:58;14.90;99.90
17170;DHT22;8700;48.222;16.342;2023-10-09T08:10:27;14.90;99.90
17170;DHT22;8700;48.222;16.342;2023-10-09T08:14:07;15.00;99.90
17170;DHT22;8700;48.222;16.342;2023-10-09T08:17:42;14.80;99.90
17170;DHT22;8700;48.222;16.342;2023-10-09T08:21:09;15.20;99.90
17170;DHT22;8700;48.222;16.342;2023-10-09T08:25:04;15.30;99.90
17170;DHT22;8700;48.222;16.342;2023-10-09T08:28:25;15.60;99.90
17170;DHT22;8700;48.222;16.342;2023-10-09T08:32:01;16.10;99.90
17170;DHT22;8700;48.222;16.342;2023-10-09T08:35:38;16.30;99.90
17170;DHT22;8700;48.222;16.342;2023-10-09T08:39:08;16.70;99.90
17170;DHT22;8700;48.222;16.342;2023-10-09T08:42:40;17.10;99.90
17170;DHT22;8700;48.222;16.342;2023-10-09T08:50:36;16.80;99.90
17170;DHT22;8700;48.222;16.342;2023-10-09T08:53:59;17.30;99.90
17170;DHT22;8700;48.222;16.342;2023-10-09T08:57:22;17.70;99.90
17170;DHT22;8700;48.222;16.342;2023-10-09T09:00:47;18.10;99.90
17170;DHT22;8700;48.222;16.342;2023-10-09T09:04:11;17.70;99.90
17170;DHT22;8700;48.222;16.342;2023-10-09T09:07:36;18.00;99.90
17170;DHT22;8700;48.222;16.342;2023-10-09T09:11:04;18.50;99.90
17170;DHT22;8700;48.222;16.342;2023-10-09T09:14:37;18.80;99.90
17170;DHT22;8700;48.222;16.342;2023-10-09T09:18:08;19.60;99.90
17170;DHT22;8700;48.222;16.342;2023-10-09T09:21:33;19.10;99.90
17170;DHT22;8700;48.222;16.342;2023-10-09T09:25:01;19.40;99.90
17170;DHT22;8700;48.222;16.342;2023-10-09T09:28:24;19.70;99.90
17170;DHT22;8700;48.222;16.342;2023-10-09T09:31:54;20.30;99.90
17170;DHT22;8700;48.222;16.342;2023-10-09T09:35:19;20.40;99.90
17170;DHT22;8700;48.222;16.342;2023-10-09T09:38:48;20.50;99.90
17170;DHT22;8700;48.222;16.342;2023-10-09T09:42:13;20.30;99.90
17170;DHT22;8700;48.222;16.342;2023-10-09T09:45:40;20.30;99.90
17170;DHT22;8700;48.222;16.342;2023-10-09T09:49:07;20.60;99.90
17170;DHT22;8700;48.222;16.342;2023-10-09T09:52:38;21.20;99.90
17170;DHT22;8700;48.222;16.342;2023-10-09T09:56:03;21.70;99.90
17170;DHT22;8700;48.222;16.342;2023-10-09T09:59:27;21.70;99.90
17170;DHT22;8700;48.222;16.342;2023-10-09T10:02:54;21.70;99.90
17170;DHT22;8700;48.222;16.342;2023-10-09T10:06:21;21.70;99.90
17170;DHT22;8700;48.222;16.342;2023-10-09T10:09:49;21.70;99.90
17170;DHT22;8700;48.222;16.342;2023-10-09T10:13:16;21.80;99.90
17170;DHT22;8700;48.222;16.342;2023-10-09T10:17:05;21.80;99.90
17170;DHT22;8700;48.222;16.342;2023-10-09T10:21:12;21.80;99.90
17170;DHT22;8700;48.222;16.342;2023-10-09T10:25:00;21.80;99.90
17170;DHT22;8700;48.222;16.342;2023-10-09T10:28:31;21.70;99.90
17170;DHT22;8700;48.222;16.342;2023-10-09T10:32:04;21.50;99.90
17170;DHT22;8700;48.222;16.342;2023-10-09T10:35:30;21.40;99.90
17170;DHT22;8700;48.222;16.342;2023-10-09T10:39:06;21.20;99.90
17170;DHT22;8700;48.222;16.342;2023-10-09T10:42:34;21.20;99.90
17170;DHT22;8700;48.222;16.342;2023-10-09T10:46:02;21.00;99.90
17170;DHT22;8700;48.222;16.342;2023-10-09T10:49:35;20.80;99.90
17170;DHT22;8700;48.222;16.342;2023-10-09T10:53:11;20.60;99.90
17170;DHT22;8700;48.222;16.342;2023-10-09T10:56:38;20.50;99.90
17170;DHT22;8700;48.222;16.342;2023-10-09T11:00:10;20.50;99.90
17170;DHT22;8700;48.222;16.342;2023-10-09T11:03:55;20.70;99.90
17170;DHT22;8700;48.222;16.342;2023-10-09T11:07:21;20.60;99.90
17170;DHT22;8700;48.222;16.342;2023-10-09T11:10:50;20.30;99.90
17170;DHT22;8700;48.222;16.342;2023-10-09T11:14:14;20.10;99.90
17170;DHT22;8700;48.222;16.342;2023-10-09T11:17:39;19.90;99.90
17170;DHT22;8700;48.222;16.342;2023-10-09T11:21:03;19.70;99.90
17170;DHT22;8700;48.222;16.342;2023-10-09T11:24:40;19.90;99.90
17170;DHT22;8700;48.222;16.342;2023-10-09T11:28:19;19.80;99.90
17170;DHT22;8700;48.222;16.342;2023-10-09T11:32:04;19.80;99.90
17170;DHT22;8700;48.222;16.342;2023-10-09T11:35:29;19.90;99.90
17170;DHT22;8700;48.222;16.342;2023-10-09T11:38:56;20.10;99.90
17170;DHT22;8700;48.222;16.342;2023-10-09T11:42:34;20.30;99.90
17170;DHT22;8700;48.222;16.342;2023-10-09T11:46:08;20.30;99.90
17170;DHT22;8700;48.222;16.342;2023-10-09T11:49:35;20.10;99.90
17170;DHT22;8700;48.222;16.342;2023-10-09T11:53:07;20.10;99.90
17170;DHT22;8700;48.222;16.342;2023-10-09T11:56:55;19.70;99.90
17170;DHT22;8700;48.222;16.342;2023-10-09T12:00:19;19.60;99.90
17170;DHT22;8700;48.222;16.342;2023-10-09T12:03:50;19.60;99.90
17170;DHT22;8700;48.222;16.342;2023-10-09T12:07:14;19.60;99.90
17170;DHT22;8700;48.222;16.342;2023-10-09T12:10:39;19.60;99.90
17170;DHT22;8700;48.222;16.342;2023-10-09T12:14:01;19.30;99.90
17170;DHT22;8700;48.222;16.342;2023-10-09T12:17:26;19.40;99.90
17170;DHT22;8700;48.222;16.342;2023-10-09T12:20:49;19.50;99.90
17170;DHT22;8700;48.222;16.342;2023-10-09T12:24:23;19.60;99.90
17170;DHT22;8700;48.222;16.342;2023-10-09T12:27:47;20.00;99.90
17170;DHT22;8700;48.222;16.342;2023-10-09T12:31:11;20.00;99.90
17170;DHT22;8700;48.222;16.342;2023-10-09T12:34:35;20.00;99.90
17170;DHT22;8700;48.222;16.342;2023-10-09T12:37:59;19.90;99.90
17170;DHT22;8700;48.222;16.342;2023-10-09T12:41:22;19.60;99.90
17170;DHT22;8700;48.222;16.342;2023-10-09T12:44:50;19.30;99.90
17170;DHT22;8700;48.222;16.342;2023-10-09T12:48:12;18.60;99.90
17170;DHT22;8700;48.222;16.342;2023-10-09T12:51:35;18.20;99.90
17170;DHT22;8700;48.222;16.342;2023-10-09T12:55:01;17.90;99.90
17170;DHT22;8700;48.222;16.342;2023-10-09T12:58:27;17.60;99.90
17170;DHT22;8700;48.222;16.342;2023-10-09T13:01:52;17.70;99.90
17170;DHT22;8700;48.222;16.342;2023-10-09T13:05:18;17.40;99.90
17170;DHT22;8700;48.222;16.342;2023-10-09T13:08:46;17.30;99.90
17170;DHT22;8700;48.222;16.342;2023-10-09T13:12:09;17.40;99.90
17170;DHT22;8700;48.222;16.342;2023-10-09T13:15:38;17.40;99.90
17170;DHT22;8700;48.222;16.342;2023-10-09T13:19:05;17.50;99.90
17170;DHT22;8700;48.222;16.342;2023-10-09T13:22:31;17.50;99.90
17170;DHT22;8700;48.222;16.342;2023-10-09T13:25:54;17.50;99.90
17170;DHT22;8700;48.222;16.342;2023-10-09T13:29:18;17.60;99.90
17170;DHT22;8700;48.222;16.342;2023-10-09T13:32:43;17.40;99.90
17170;DHT22;8700;48.222;16.342;2023-10-09T13:36:12;17.30;99.90
17170;DHT22;8700;48.222;16.342;2023-10-09T13:39:40;17.30;99.90
17170;DHT22;8700;48.222;16.342;2023-10-09T13:43:13;17.20;99.90
17170;DHT22;8700;48.222;16.342;2023-10-09T13:46:37;17.30;99.90
17170;DHT22;8700;48.222;16.342;2023-10-09T13:50:04;17.10;99.90
17170;DHT22;8700;48.222;16.342;2023-10-09T13:53:41;17.10;99.90
17170;DHT22;8700;48.222;16.342;2023-10-09T13:57:10;17.20;99.90
17170;DHT22;8700;48.222;16.342;2023-10-09T14:00:38;17.40;99.90
17170;DHT22;8700;48.222;16.342;2023-10-09T14:04:12;17.40;99.90
17170;DHT22;8700;48.222;16.342;2023-10-09T14:07:55;17.30;99.90
17170;DHT22;8700;48.222;16.342;2023-10-09T14:11:35;17.40;99.90
17170;DHT22;8700;48.222;16.342;2023-10-09T14:15:10;17.30;99.90
17170;DHT22;8700;48.222;16.342;2023-10-09T14:18:44;17.30;99.90
17170;DHT22;8700;48.222;16.342;2023-10-09T14:22:20;17.20;99.90
17170;DHT22;8700;48.222;16.342;2023-10-09T14:25:52;17.10;99.90
17170;DHT22;8700;48.222;16.342;2023-10-09T14:29:19;17.10;99.90
17170;DHT22;8700;48.222;16.342;2023-10-09T14:32:48;17.10;99.90
17170;DHT22;8700;48.222;16.342;2023-10-09T14:36:17;17.10;99.90
17170;DHT22;8700;48.222;16.342;2023-10-09T14:39:40;17.10;99.90
17170;DHT22;8700;48.222;16.342;2023-10-09T14:43:03;17.00;99.90
17170;DHT22;8700;48.222;16.342;2023-10-09T14:46:30;16.90;99.90
17170;DHT22;8700;48.222;16.342;2023-10-09T14:49:53;17.00;99.90
17170;DHT22;8700;48.222;16.342;2023-10-09T14:53:16;16.90;99.90
17170;DHT22;8700;48.222;16.342;2023-10-09T14:56:41;17.00;99.90
17170;DHT22;8700;48.222;16.342;2023-10-09T15:00:06;17.20;99.90
17170;DHT22;8700;48.222;16.342;2023-10-09T15:03:37;17.30;99.90
17170;DHT22;8700;48.222;16.342;2023-10-09T15:07:01;17.20;99.90
17170;DHT22;8700;48.222;16.342;2023-10-09T15:10:24;17.20;99.90
17170;DHT22;8700;48.222;16.342;2023-10-09T15:13:49;16.60;99.90
17170;DHT22;8700;48.222;16.342;2023-10-09T15:17:14;16.40;99.90
17170;DHT22;8700;48.222;16.342;2023-10-09T15:20:38;16.40;99.90
17170;DHT22;8700;48.222;16.342;2023-10-09T15:24:03;16.30;99.90
17170;DHT22;8700;48.222;16.342;2023-10-09T15:27:26;16.20;99.90
17170;DHT22;8700;48.222;16.342;2023-10-09T15:30:51;16.20;99.90
17170;DHT22;8700;48.222;16.342;2023-10-09T15:34:16;16.30;99.90
17170;DHT22;8700;48.222;16.342;2023-10-09T15:37:44;16.30;99.90
17170;DHT22;8700;48.222;16.342;2023-10-09T15:41:08;16.20;99.90
17170;DHT22;8700;48.222;16.342;2023-10-09T15:44:32;16.40;99.90
17170;DHT22;8700;48.222;16.342;2023-10-09T15:47:58;16.50;99.90
17170;DHT22;8700;48.222;16.342;2023-10-09T15:51:23;16.40;99.90
17170;DHT22;8700;48.222;16.342;2023-10-09T15:54:48;16.50;99.90
17170;DHT22;8700;48.222;16.342;2023-10-09T15:58:14;16.50;99.90
17170;DHT22;8700;48.222;16.342;2023-10-09T16:01:36;16.80;99.90
17170;DHT22;8700;48.222;16.342;2023-10-09T16:05:02;16.80;99.90
17170;DHT22;8700;48.222;16.342;2023-10-09T16:08:26;16.80;99.90
17170;DHT22;8700;48.222;16.342;2023-10-09T16:11:50;16.70;99.90
17170;DHT22;8700;48.222;16.342;2023-10-09T16:15:14;16.90;99.90
17170;DHT22;8700;48.222;16.342;2023-10-09T16:18:38;17.00;99.90
17170;DHT22;8700;48.222;16.342;2023-10-09T16:22:01;16.90;99.90
17170;DHT22;8700;48.222;16.342;2023-10-09T16:25:25;16.60;99.90
17170;DHT22;8700;48.222;16.342;2023-10-09T16:33:22;16.60;99.90
17170;DHT22;8700;48.222;16.342;2023-10-09T16:36:46;16.90;99.90
17170;DHT22;8700;48.222;16.342;2023-10-09T16:40:10;16.80;99.90
17170;DHT22;8700;48.222;16.342;2023-10-09T16:43:34;16.60;99.90
17170;DHT22;8700;48.222;16.342;2023-10-09T16:46:58;16.70;99.90
17170;DHT22;8700;48.222;16.342;2023-10-09T16:50:23;16.80;99.90
17170;DHT22;8700;48.222;16.342;2023-10-09T16:53:49;16.90;99.90
17170;DHT22;8700;48.222;16.342;2023-10-09T16:57:14;16.90;99.90
17170;DHT22;8700;48.222;16.342;2023-10-09T17:00:40;16.80;99.90
17170;DHT22;8700;48.222;16.342;2023-10-09T17:04:07;16.70;99.90
17170;DHT22;8700;48.222;16.342;2023-10-09T17:07:34;16.70;99.90
17170;DHT22;8700;48.222;16.342;2023-10-09T17:10:56;16.60;99.90
17170;DHT22;8700;48.222;16.342;2023-10-09T17:14:21;16.70;99.90
17170;DHT22;8700;48.222;16.342;2023-10-09T17:17:47;16.90;99.90
17170;DHT22;8700;48.222;16.342;2023-10-09T17:21:12;17.10;99.90
17170;DHT22;8700;48.222;16.342;2023-10-09T17:24:37;17.20;99.90
17170;DHT22;8700;48.222;16.342;2023-10-09T17:28:00;17.30;99.90
17170;DHT22;8700;48.222;16.342;2023-10-09T17:31:23;17.30;99.90
17170;DHT22;8700;48.222;16.342;2023-10-09T17:34:48;17.30;99.90
17170;DHT22;8700;48.222;16.342;2023-10-09T17:38:11;17.30;99.90
17170;DHT22;8700;48.222;16.342;2023-10-09T17:41:36;17.50;99.90
17170;DHT22;8700;48.222;16.342;2023-10-09T17:44:59;17.50;99.90
17170;DHT22;8700;48.222;16.342;2023-10-09T17:48:25;17.50;99.90
17170;DHT22;8700;48.222;16.342;2023-10-09T17:51:58;17.30;99.90
17170;DHT22;8700;48.222;16.342;2023-10-09T17:55:22;17.30;99.90
17170;DHT22;8700;48.222;16.342;2023-10-09T17:58:46;17.50;99.90
17170;DHT22;8700;48.222;16.342;2023-10-09T18:02:11;17.60;99.90
17170;DHT22;8700;48.222;16.342;2023-10-09T18:05:35;17.70;99.90
17170;DHT22;8700;48.222;16.342;2023-10-09T18:08:57;17.80;99.90
17170;DHT22;8700;48.222;16.342;2023-10-09T18:12:21;17.80;99.90
17170;DHT22;8700;48.222;16.342;2023-10-09T18:15:45;17.70;99.90
17170;DHT22;8700;48.222;16.342;2023-10-09T18:19:09;17.60;99.90
17170;DHT22;8700;48.222;16.342;2023-10-09T18:22:35;17.50;99.90
17170;DHT22;8700;48.222;16.342;2023-10-09T18:30:32;17.40;99.90
17170;DHT22;8700;48.222;16.342;2023-10-09T18:34:01;17.30;99.90
17170;DHT22;8700;48.222;16.342;2023-10-09T18:37:28;17.40;99.90
17170;DHT22;8700;48.222;16.342;2023-10-09T18:40:51;17.50;99.90
17170;DHT22;8700;48.222;16.342;2023-10-09T18:44:15;17.60;99.90
17170;DHT22;8700;48.222;16.342;2023-10-09T18:52:11;17.60;99.90
17170;DHT22;8700;48.222;16.342;2023-10-09T18:55:35;17.60;99.90
17170;DHT22;8700;48.222;16.342;2023-10-09T18:59:00;17.50;99.90
17170;DHT22;8700;48.222;16.342;2023-10-09T19:02:30;17.60;99.90
17170;DHT22;8700;48.222;16.342;2023-10-09T19:05:58;17.70;99.90
17170;DHT22;8700;48.222;16.342;2023-10-09T19:09:28;17.80;99.90
17170;DHT22;8700;48.222;16.342;2023-10-09T19:12:56;17.70;99.90
17170;DHT22;8700;48.222;16.342;2023-10-09T19:16:21;17.60;99.90
17170;DHT22;8700;48.222;16.342;2023-10-09T19:19:46;17.80;99.90
17170;DHT22;8700;48.222;16.342;2023-10-09T19:23:08;17.70;99.90
17170;DHT22;8700;48.222;16.342;2023-10-09T19:26:35;17.60;99.90
17170;DHT22;8700;48.222;16.342;2023-10-09T19:29:59;17.60;99.90
17170;DHT22;8700;48.222;16.342;2023-10-09T19:33:25;17.50;99.90
17170;DHT22;8700;48.222;16.342;2023-10-09T19:36:50;17.50;99.90
17170;DHT22;8700;48.222;16.342;2023-10-09T19:40:13;17.40;99.90
17170;DHT22;8700;48.222;16.342;2023-10-09T19:48:10;17.30;99.90
17170;DHT22;8700;48.222;16.342;2023-10-09T19:51:33;17.40;99.90
17170;DHT22;8700;48.222;16.342;2023-10-09T19:54:56;17.40;99.90
17170;DHT22;8700;48.222;16.342;2023-10-09T19:58:19;17.40;99.90
17170;DHT22;8700;48.222;16.342;2023-10-09T20:01:42;17.40;99.90
17170;DHT22;8700;48.222;16.342;2023-10-09T20:05:07;17.30;99.90
17170;DHT22;8700;48.222;16.342;2023-10-09T20:08:35;17.30;99.90
17170;DHT22;8700;48.222;16.342;2023-10-09T20:11:58;17.30;99.90
17170;DHT22;8700;48.222;16.342;2023-10-09T20:15:22;17.10;99.90
17170;DHT22;8700;48.222;16.342;2023-10-09T20:18:45;17.00;99.90
17170;DHT22;8700;48.222;16.342;2023-10-09T20:22:10;16.90;99.90
17170;DHT22;8700;48.222;16.342;2023-10-09T20:25:33;16.70;99.90
17170;DHT22;8700;48.222;16.342;2023-10-09T20:28:57;16.60;99.90
17170;DHT22;8700;48.222;16.342;2023-10-09T20:32:20;16.50;99.90
17170;DHT22;8700;48.222;16.342;2023-10-09T20:35:43;16.60;99.90
17170;DHT22;8700;48.222;16.342;2023-10-09T20:39:08;16.60;99.90
17170;DHT22;8700;48.222;16.342;2023-10-09T20:42:32;16.60;99.90
17170;DHT22;8700;48.222;16.342;2023-10-09T20:55:07;16.40;99.90
17170;DHT22;8700;48.222;16.342;2023-10-09T20:58:31;16.50;99.90
17170;DHT22;8700;48.222;16.342;2023-10-09T21:01:54;16.50;99.90
17170;DHT22;8700;48.222;16.342;2023-10-09T21:05:16;16.40;99.90
17170;DHT22;8700;48.222;16.342;2023-10-09T21:08:39;16.50;99.90
17170;DHT22;8700;48.222;16.342;2023-10-09T21:21:11;16.80;99.90
17170;DHT22;8700;48.222;16.342;2023-10-09T21:24:35;16.80;99.90
17170;DHT22;8700;48.222;16.342;2023-10-09T21:27:58;16.70;99.90
17170;DHT22;8700;48.222;16.342;2023-10-09T21:31:21;16.70;99.90
17170;DHT22;8700;48.222;16.342;2023-10-09T21:34:46;16.70;99.90
17170;DHT22;8700;48.222;16.342;2023-10-09T21:38:10;16.70;99.90
17170;DHT22;8700;48.222;16.342;2023-10-09T21:41:34;16.80;99.90
17170;DHT22;8700;48.222;16.342;2023-10-09T21:44:57;16.80;99.90
17170;DHT22;8700;48.222;16.342;2023-10-09T21:48:22;16.50;99.90
17170;DHT22;8700;48.222;16.342;2023-10-09T21:51:46;16.40;99.90
17170;DHT22;8700;48.222;16.342;2023-10-09T21:55:10;16.50;99.90
17170;DHT22;8700;48.222;16.342;2023-10-09T21:58:34;16.80;99.90
17170;DHT22;8700;48.222;16.342;2023-10-09T22:01:57;16.70;99.90
17170;DHT22;8700;48.222;16.342;2023-10-09T22:05:20;16.70;99.90
17170;DHT22;8700;48.222;16.342;2023-10-09T22:08:42;16.70;99.90
17170;DHT22;8700;48.222;16.342;2023-10-09T22:16:39;16.70;99.90
17170;DHT22;8700;48.222;16.342;2023-10-09T22:20:02;16.70;99.90
17170;DHT22;8700;48.222;16.342;2023-10-09T22:23:27;16.80;99.90
17170;DHT22;8700;48.222;16.342;2023-10-09T22:26:53;16.80;99.90
17170;DHT22;8700;48.222;16.342;2023-10-09T22:30:16;16.70;99.90
17170;DHT22;8700;48.222;16.342;2023-10-09T22:33:41;16.70;99.90
17170;DHT22;8700;48.222;16.342;2023-10-09T22:37:10;16.70;99.90
17170;DHT22;8700;48.222;16.342;2023-10-09T22:40:39;16.90;99.90
17170;DHT22;8700;48.222;16.342;2023-10-09T22:44:02;16.80;99.90
17170;DHT22;8700;48.222;16.342;2023-10-09T22:47:30;16.80;99.90
17170;DHT22;8700;48.222;16.342;2023-10-09T22:50:55;16.90;99.90
17170;DHT22;8700;48.222;16.342;2023-10-09T22:54:36;17.00;99.90
17170;DHT22;8700;48.222;16.342;2023-10-09T22:58:03;17.00;99.90